Thursday, January 18, 2018, 12:09 AM GMT
Back to Local

CWEP, East Point, P. E. I

Location: , , Canada Lat: 46.45
Local Time: 12:09 AM GMT ( 0:09 GMT) Lon: -61.967
Time Zone: GMT Elev: 36 ft

Show me the last for .
Show Coded

Time T Td Feel RH Dir Speed Gust Alt SLP Vis Weather Sky Remarks
2018-01-17 23:00 30 28 22 94 130° 8 - - 30.24 0 1-hr Precip Total: 0.02"
2018-01-17 22:00 29 27 20 94 120° 9 - - 30.26 0 1-hr Precip Total: 0.01"
2018-01-17 21:00 28 26 21 93 120° 7 - - 30.29 0 1-hr Precip Total: 0.01"
2018-01-17 20:00 27 25 19 92 100° 7 - - 30.32 0 1-hr Precip Total: 0.02"
2018-01-17 19:00 26 24 22 90 140° 3 - - 30.34 0 1-hr Precip Total: 0.01"
2018-01-17 18:00 26 23 22 88 170° 3 - - 30.37 0 1-hr Precip Total: 0.01"
2018-01-17 17:00 26 22 20 87 200° 5 - - 30.40 0 1-hr Precip Total: 0.01"
2018-01-17 16:00 25 22 20 87 220° 5 - - 30.44 0 1-hr Precip Total: 0.01"
2018-01-17 15:00 25 22 18 85 200° 6 - - 30.47 0 None
2018-01-17 14:00 24 21 16 85 210° 7 - - 30.49 0 None
2018-01-17 13:00 24 20 16 86 220° 7 - - 30.50 0 None
2018-01-17 12:00 24 21 16 88 210° 7 - - 30.48 0 None
2018-01-17 11:00 24 21 17 89 230° 6 - - 30.47 0 None
2018-01-17 10:00 24 21 19 87 250° 5 - - 30.45 0 None
2018-01-17 09:00 25 21 19 86 250° 5 - - 30.45 0 None
2018-01-17 08:00 24 21 15 85 250° 8 - - 30.44 0 None
2018-01-17 07:00 25 22 18 85 220° 6 - - 30.43 0 None
2018-01-17 06:00 26 22 19 85 220° 6 - - 30.44 0 None
2018-01-17 05:00 26 22 20 85 230° 5 - - 30.44 0 None
2018-01-17 04:00 26 26 21 97 230° 5 - - 30.45 0 None
2018-01-17 03:00 27 24 22 88 230° 5 - - 30.45 0 None
2018-01-17 02:00 28 24 22 88 250° 5 - - 30.46 0 None
2018-01-17 01:00 28 25 18 87 290° 12 - - 30.44 0 None

Support USWX by starting your Amazon purchase here.